createdAt,value
2023-02-02T00:01:50.845Z,88.72
2023-02-02T00:04:22.745Z,88.64
2023-02-02T00:06:50.728Z,88.46
2023-02-02T00:09:20.629Z,88.75
2023-02-02T00:11:51.476Z,88.68
2023-02-02T00:14:22.407Z,89.01
2023-02-02T00:16:55.531Z,89.13
2023-02-02T00:19:30.449Z,89.53
2023-02-02T00:21:58.241Z,90.04
2023-02-02T00:24:25.531Z,89.99
2023-02-02T00:26:59.086Z,89.94
2023-02-02T00:29:30.100Z,90.19
2023-02-02T00:31:58.278Z,90.39
2023-02-02T00:34:25.542Z,90.45
2023-02-02T00:36:52.914Z,90.42
2023-02-02T00:39:26.041Z,90.20
2023-02-02T00:41:53.929Z,90.26
2023-02-02T00:44:39.395Z,89.86
2023-02-02T00:47:06.384Z,90.07
2023-02-02T00:49:33.480Z,90.29
2023-02-02T00:52:01.410Z,90.16
2023-02-02T00:54:29.322Z,90.01
2023-02-02T00:56:56.386Z,89.66
2023-02-02T00:59:23.370Z,89.67
2023-02-02T01:01:50.469Z,89.69
2023-02-02T01:04:17.449Z,89.54
2023-02-02T01:06:44.352Z,89.81
2023-02-02T01:09:11.301Z,89.71
2023-02-02T01:11:38.454Z,89.78
2023-02-02T01:14:05.806Z,89.67
2023-02-02T01:16:33.084Z,89.56
2023-02-02T01:19:00.143Z,88.72
2023-02-02T01:21:27.161Z,88.74
2023-02-02T01:23:54.081Z,89.26
2023-02-02T01:26:21.080Z,89.29
2023-02-02T01:28:48.053Z,89.15
2023-02-02T01:31:19.123Z,89.03
2023-02-02T01:33:47.993Z,88.93
2023-02-02T01:36:21.739Z,89.37
2023-02-02T01:38:50.248Z,89.24
2023-02-02T01:41:21.713Z,89.21
2023-02-02T01:43:49.374Z,88.85
2023-02-02T01:46:29.692Z,88.94
2023-02-02T01:49:00.579Z,89.18
2023-02-02T01:51:36.801Z,88.90
2023-02-02T01:54:08.637Z,89.03
2023-02-02T01:56:42.913Z,89.48
2023-02-02T01:59:11.538Z,89.15
2023-02-02T02:01:38.497Z,89.41
2023-02-02T02:04:05.624Z,89.63
2023-02-02T02:06:33.314Z,89.63
2023-02-02T02:09:04.450Z,89.63
2023-02-02T02:11:34.402Z,89.30
2023-02-02T02:14:25.735Z,89.88
2023-02-02T02:17:17.338Z,89.73
2023-02-02T02:20:36.583Z,90.13
2023-02-02T02:24:17.996Z,90.22
2023-02-02T02:27:08.965Z,90.99
2023-02-02T02:30:08.002Z,91.30
2023-02-02T02:33:04.482Z,91.23
2023-02-02T02:35:59.594Z,91.46
2023-02-02T02:39:03.646Z,91.55
2023-02-02T02:41:38.135Z,91.72
2023-02-02T02:44:10.836Z,92.43
2023-02-02T02:46:38.699Z,92.76
2023-02-02T02:49:10.306Z,93.46
2023-02-02T02:51:54.942Z,93.63
2023-02-02T02:54:29.830Z,94.01
2023-02-02T02:57:44.278Z,94.21
2023-02-02T03:00:36.715Z,93.86
2023-02-02T03:03:34.673Z,93.83
2023-02-02T03:06:34.929Z,94.22
2023-02-02T03:09:22.486Z,94.38
2023-02-02T03:11:49.537Z,94.36
2023-02-02T03:14:16.639Z,94.30
2023-02-02T03:16:43.671Z,93.64
2023-02-02T03:19:10.781Z,93.35
2023-02-02T03:21:37.918Z,93.42
2023-02-02T03:24:05.335Z,93.17
2023-02-02T03:26:32.572Z,93.00
2023-02-02T03:29:01.390Z,92.91
2023-02-02T03:31:30.091Z,92.74
2023-02-02T03:33:58.175Z,92.80
2023-02-02T03:36:25.215Z,93.01
2023-02-02T03:38:52.471Z,92.62
2023-02-02T03:41:19.605Z,92.27
2023-02-02T03:43:46.809Z,92.47
2023-02-02T03:46:14.066Z,92.05
2023-02-02T03:48:41.152Z,91.81
2023-02-02T03:51:15.300Z,91.58
2023-02-02T03:53:47.816Z,91.43
2023-02-02T03:56:15.636Z,91.38
2023-02-02T03:58:42.789Z,90.59
2023-02-02T04:01:13.790Z,90.69
2023-02-02T04:03:41.152Z,90.86
2023-02-02T04:06:08.247Z,90.42
2023-02-02T04:08:35.628Z,90.60
2023-02-02T04:11:02.867Z,90.22
2023-02-02T04:13:29.875Z,89.83
2023-02-02T04:15:59.559Z,89.61
2023-02-02T04:18:26.866Z,89.73
2023-02-02T04:21:00.923Z,89.44
2023-02-02T04:23:29.105Z,89.70
2023-02-02T04:25:56.873Z,89.55
2023-02-02T04:28:24.658Z,89.06
2023-02-02T04:30:53.983Z,89.27
2023-02-02T04:33:22.562Z,89.65
2023-02-02T04:35:49.655Z,89.30
2023-02-02T04:38:16.751Z,89.73
2023-02-02T04:40:47.306Z,89.48
2023-02-02T04:43:15.267Z,89.38
2023-02-02T04:45:42.557Z,89.56
2023-02-02T04:48:09.829Z,89.54
2023-02-02T04:50:37.004Z,89.08
2023-02-02T04:53:05.036Z,88.90
2023-02-02T04:55:36.312Z,88.75
2023-02-02T04:58:03.447Z,88.53
2023-02-02T05:00:30.446Z,88.26
2023-02-02T05:02:57.455Z,88.46
2023-02-02T05:05:24.766Z,88.23
2023-02-02T05:07:51.858Z,88.33
2023-02-02T05:10:18.918Z,87.86
2023-02-02T05:12:45.907Z,88.16
2023-02-02T05:15:12.930Z,88.22
2023-02-02T05:17:39.900Z,88.33
2023-02-02T05:20:07.544Z,88.69
2023-02-02T05:22:35.309Z,88.92
2023-02-02T05:25:02.564Z,88.67
2023-02-02T05:27:29.564Z,88.89
2023-02-02T05:29:56.625Z,88.62
2023-02-02T05:32:23.772Z,88.33
2023-02-02T05:34:50.859Z,88.76
2023-02-02T05:37:17.859Z,88.63
2023-02-02T05:39:44.884Z,89.23
2023-02-02T05:42:11.973Z,89.59
2023-02-02T05:44:39.213Z,89.39
2023-02-02T05:47:06.236Z,89.55
2023-02-02T05:49:33.221Z,89.48
2023-02-02T05:52:00.462Z,89.57
2023-02-02T05:54:27.684Z,89.76
2023-02-02T05:56:55.909Z,89.93
2023-02-02T05:59:24.395Z,90.41
2023-02-02T06:01:51.361Z,91.40
2023-02-02T06:04:18.559Z,92.87
2023-02-02T06:06:46.698Z,94.44
2023-02-02T06:09:13.842Z,95.41
2023-02-02T06:11:41.002Z,95.85
2023-02-02T06:14:08.084Z,95.57
2023-02-02T06:16:35.342Z,95.73
2023-02-02T06:19:02.592Z,95.48
2023-02-02T06:21:31.482Z,95.59
2023-02-02T06:23:59.514Z,95.37
2023-02-02T06:26:27.155Z,95.11
2023-02-02T06:28:55.336Z,95.07
2023-02-02T06:31:25.394Z,94.45
2023-02-02T06:33:58.610Z,94.83
2023-02-02T06:36:27.672Z,95.00
2023-02-02T06:38:57.005Z,95.78
2023-02-02T06:41:24.908Z,95.94
2023-02-02T06:43:52.768Z,95.65
2023-02-02T06:46:20.025Z,95.85
2023-02-02T06:48:47.048Z,95.71
2023-02-02T06:51:14.323Z,96.33
2023-02-02T06:53:41.991Z,96.26
2023-02-02T06:56:13.280Z,96.15
2023-02-02T06:58:41.348Z,95.43
2023-02-02T07:01:11.671Z,95.40
2023-02-02T07:03:39.665Z,95.38
2023-02-02T07:06:36.094Z,95.42
2023-02-02T07:09:03.580Z,94.95
2023-02-02T07:11:34.606Z,94.71
2023-02-02T07:14:03.630Z,95.60
2023-02-02T07:16:31.188Z,96.34
2023-02-02T07:18:58.382Z,96.32
2023-02-02T07:21:35.511Z,96.71
2023-02-02T07:24:04.789Z,96.73
2023-02-02T07:26:32.024Z,97.00
2023-02-02T07:28:59.118Z,97.15
2023-02-02T07:31:27.445Z,97.16
2023-02-02T07:33:54.947Z,97.61
2023-02-02T07:36:24.608Z,97.45
2023-02-02T07:39:02.575Z,98.52
2023-02-02T07:41:29.811Z,98.81
2023-02-02T07:43:56.959Z,98.48
2023-02-02T07:46:24.080Z,99.01
2023-02-02T07:48:58.001Z,98.50
2023-02-02T07:51:25.924Z,98.85
2023-02-02T07:53:56.003Z,98.72
2023-02-02T07:56:27.971Z,99.39
2023-02-02T07:58:56.663Z,99.27
2023-02-02T08:01:26.461Z,99.62
2023-02-02T08:03:56.272Z,98.86
2023-02-02T08:06:28.449Z,98.35
2023-02-02T08:08:55.695Z,97.88
2023-02-02T08:11:24.980Z,97.21
2023-02-02T08:13:55.989Z,97.01
2023-02-02T08:16:24.229Z,97.06
2023-02-02T08:18:52.045Z,96.72
2023-02-02T08:21:19.869Z,95.88
2023-02-02T08:23:47.797Z,95.53
2023-02-02T08:26:16.602Z,95.17
2023-02-02T08:28:47.378Z,95.05
2023-02-02T08:31:30.818Z,94.11
2023-02-02T08:33:58.699Z,93.46
2023-02-02T08:36:28.541Z,93.75
2023-02-02T08:38:55.885Z,93.87
2023-02-02T08:41:24.412Z,93.17
2023-02-02T08:43:51.928Z,92.64
2023-02-02T08:46:21.334Z,92.07
2023-02-02T08:48:49.083Z,91.89
2023-02-02T08:51:19.557Z,91.72
2023-02-02T08:53:47.653Z,90.87
2023-02-02T08:56:20.386Z,90.52
2023-02-02T08:58:56.656Z,90.13
2023-02-02T09:01:29.845Z,90.04
2023-02-02T09:04:00.031Z,89.60
2023-02-02T09:06:33.321Z,89.71
2023-02-02T09:09:00.627Z,89.32
2023-02-02T09:11:28.445Z,89.43
2023-02-02T09:13:58.884Z,89.31
2023-02-02T09:16:27.726Z,88.46
2023-02-02T09:18:56.341Z,88.29
2023-02-02T09:21:26.053Z,88.11
2023-02-02T09:23:54.452Z,88.48
2023-02-02T09:26:29.832Z,88.23
2023-02-02T09:29:02.605Z,88.19
2023-02-02T09:31:33.081Z,87.65
2023-02-02T09:34:08.953Z,87.30
2023-02-02T09:36:37.409Z,87.33
2023-02-02T09:39:06.017Z,87.02
2023-02-02T09:41:39.327Z,87.57
2023-02-02T09:44:28.094Z,87.15
2023-02-02T09:47:32.426Z,87.17
2023-02-02T09:50:40.059Z,86.65
2023-02-02T09:53:19.614Z,86.34
2023-02-02T09:59:10.177Z,86.88
2023-02-02T10:01:53.912Z,86.00
2023-02-02T10:04:40.217Z,85.45
2023-02-02T10:07:15.155Z,85.01
2023-02-02T10:09:57.831Z,84.98
2023-02-02T10:12:33.957Z,84.56
2023-02-02T10:15:27.247Z,84.33
2023-02-02T10:18:27.796Z,84.46
2023-02-02T10:21:14.136Z,84.24
2023-02-02T10:23:45.808Z,83.77
2023-02-02T10:26:32.267Z,83.72
2023-02-02T10:29:27.204Z,83.70
2023-02-02T10:32:31.103Z,84.45
2023-02-02T10:35:20.226Z,84.06
2023-02-02T10:38:14.574Z,83.80
2023-02-02T10:41:03.458Z,84.29
2023-02-02T10:44:04.325Z,84.15
2023-02-02T10:46:46.987Z,83.86
2023-02-02T10:49:37.407Z,83.74
2023-02-02T10:52:11.207Z,83.51
2023-02-02T10:55:10.252Z,83.62
2023-02-02T10:57:51.542Z,83.77
2023-02-02T11:00:39.261Z,83.69
2023-02-02T11:03:08.752Z,83.92
2023-02-02T11:05:55.372Z,83.87
2023-02-02T11:08:47.786Z,83.38
2023-02-02T11:11:27.591Z,82.79
2023-02-02T11:14:10.119Z,83.26
2023-02-02T11:16:44.029Z,82.80
2023-02-02T11:19:17.390Z,82.80
2023-02-02T11:22:04.551Z,83.05
2023-02-02T11:24:45.561Z,83.04
2023-02-02T11:27:22.038Z,82.89
2023-02-02T11:29:55.545Z,82.59
2023-02-02T11:32:25.500Z,82.79
2023-02-02T11:35:04.662Z,82.82
2023-02-02T11:37:37.037Z,82.77
2023-02-02T11:40:24.498Z,82.23
2023-02-02T11:42:52.480Z,82.40
2023-02-02T11:45:35.775Z,82.31
2023-02-02T11:48:23.085Z,82.56
2023-02-02T11:50:56.556Z,82.55
2023-02-02T11:53:47.860Z,82.52
2023-02-02T11:56:25.511Z,82.24
2023-02-02T11:58:59.324Z,82.37
2023-02-02T12:01:32.041Z,82.23
2023-02-02T12:04:22.338Z,81.91
2023-02-02T12:06:49.317Z,82.01
2023-02-02T12:09:25.511Z,81.83
2023-02-02T12:12:17.596Z,81.95
2023-02-02T12:15:08.506Z,81.35
2023-02-02T12:17:45.262Z,81.52
2023-02-02T12:20:27.979Z,81.32
2023-02-02T12:23:25.666Z,81.29
2023-02-02T12:26:26.118Z,81.29
2023-02-02T12:29:09.304Z,81.33
2023-02-02T12:32:25.189Z,80.82
2023-02-02T12:35:04.345Z,81.10
2023-02-02T12:38:01.970Z,81.49
2023-02-02T12:40:39.551Z,81.50
2023-02-02T12:43:40.629Z,81.64
2023-02-02T12:46:30.631Z,81.61
2023-02-02T12:49:33.721Z,81.52
2023-02-02T12:52:36.206Z,82.18
2023-02-02T12:55:33.769Z,82.36
2023-02-02T12:58:20.125Z,81.87
2023-02-02T13:00:53.225Z,81.81
2023-02-02T13:03:46.568Z,81.52
2023-02-02T13:06:53.961Z,81.71
2023-02-02T13:09:28.142Z,82.03
2023-02-02T13:12:07.419Z,82.02
2023-02-02T13:15:00.865Z,82.13
2023-02-02T13:17:33.387Z,82.03
2023-02-02T13:20:06.407Z,82.34
2023-02-02T13:22:44.775Z,81.90
2023-02-02T13:25:31.004Z,81.78
2023-02-02T13:28:01.662Z,81.99
2023-02-02T13:30:38.047Z,82.10
2023-02-02T13:33:25.646Z,81.82
2023-02-02T13:36:01.239Z,82.26
2023-02-02T13:38:30.673Z,82.02
2023-02-02T13:41:07.884Z,81.98
2023-02-02T13:43:58.826Z,81.68
2023-02-02T13:46:46.971Z,81.73
2023-02-02T13:49:32.833Z,81.56
2023-02-02T13:52:38.077Z,81.52
2023-02-02T13:55:29.903Z,81.50
2023-02-02T13:58:56.704Z,81.35
2023-02-02T14:01:25.344Z,81.84
2023-02-02T14:03:57.999Z,81.28
2023-02-02T14:06:28.015Z,81.34
2023-02-02T14:08:59.651Z,81.79
2023-02-02T14:11:37.616Z,81.90
2023-02-02T14:14:32.237Z,81.35
2023-02-02T14:17:14.025Z,81.48
2023-02-02T14:19:58.413Z,81.34
2023-02-02T14:22:48.109Z,80.89
2023-02-02T14:25:33.493Z,81.00
2023-02-02T14:28:44.286Z,81.02
2023-02-02T14:31:53.291Z,80.56
2023-02-02T14:34:40.699Z,80.20
2023-02-02T14:37:28.795Z,80.43
2023-02-02T14:40:10.429Z,80.10
2023-02-02T14:43:36.305Z,79.80
2023-02-02T14:46:15.282Z,79.85
2023-02-02T14:48:46.576Z,79.64
2023-02-02T14:51:24.638Z,79.55
2023-02-02T14:53:56.956Z,80.02
2023-02-02T14:56:52.033Z,79.99
2023-02-02T14:59:30.818Z,80.15
2023-02-02T15:02:24.392Z,80.02
2023-02-02T15:04:51.502Z,80.02
2023-02-02T15:07:24.667Z,80.48
2023-02-02T15:09:56.583Z,79.58
2023-02-02T15:12:45.105Z,79.56
2023-02-02T15:15:30.083Z,79.38
2023-02-02T15:18:25.788Z,80.10
2023-02-02T15:20:56.367Z,79.91
2023-02-02T15:23:45.001Z,79.80
2023-02-02T15:26:30.294Z,79.81
2023-02-02T15:29:14.662Z,79.46
2023-02-02T15:31:52.359Z,79.03
2023-02-02T15:34:37.795Z,79.30
2023-02-02T15:37:08.446Z,79.05
2023-02-02T15:39:58.496Z,79.88
2023-02-02T15:42:55.551Z,80.21
2023-02-02T15:45:31.759Z,80.03
2023-02-02T15:48:00.593Z,80.08
2023-02-02T15:50:28.547Z,80.34
2023-02-02T15:52:56.433Z,80.25
2023-02-02T15:55:36.492Z,80.48
2023-02-02T15:58:20.464Z,80.75
2023-02-02T16:01:12.990Z,80.55
2023-02-02T16:03:48.750Z,80.40
2023-02-02T16:06:17.430Z,80.31
2023-02-02T16:08:45.080Z,80.47
2023-02-02T16:11:19.070Z,80.56
2023-02-02T16:14:10.561Z,80.59
2023-02-02T16:16:40.340Z,80.92
2023-02-02T16:19:22.520Z,80.69
2023-02-02T16:22:02.370Z,80.54
2023-02-02T16:24:39.016Z,80.70
2023-02-02T16:27:13.769Z,81.00
2023-02-02T16:29:42.040Z,80.97
2023-02-02T16:32:31.507Z,80.94
2023-02-02T16:35:00.978Z,80.99
2023-02-02T16:37:32.426Z,81.12
2023-02-02T16:40:29.545Z,81.99
2023-02-02T16:43:21.734Z,81.90
2023-02-02T16:45:58.991Z,82.26
2023-02-02T16:48:31.708Z,82.62
2023-02-02T16:51:07.322Z,82.31
2023-02-02T16:53:36.193Z,82.15
2023-02-02T16:56:07.991Z,82.29
2023-02-02T16:58:45.572Z,82.97
2023-02-02T17:01:16.671Z,83.22
2023-02-02T17:03:53.387Z,83.36
2023-02-02T17:06:50.157Z,83.60
2023-02-02T17:09:41.214Z,83.92
2023-02-02T17:12:34.820Z,84.12
2023-02-02T17:15:35.329Z,84.15
2023-02-02T17:18:04.838Z,84.25
2023-02-02T17:20:34.494Z,84.11
2023-02-02T17:23:10.567Z,84.05
2023-02-02T17:25:42.764Z,84.12
2023-02-02T17:28:20.715Z,83.84
2023-02-02T17:30:55.799Z,84.41
2023-02-02T17:33:24.752Z,84.28
2023-02-02T17:35:55.854Z,84.38
2023-02-02T17:38:25.449Z,84.35
2023-02-02T17:40:54.457Z,84.47
2023-02-02T17:43:21.775Z,84.99
2023-02-02T17:45:49.353Z,85.38
2023-02-02T17:48:16.607Z,85.77
2023-02-02T17:50:44.317Z,85.93
2023-02-02T17:53:18.711Z,86.58
2023-02-02T17:55:49.128Z,86.39
2023-02-02T17:58:17.677Z,86.87
2023-02-02T18:00:50.403Z,87.65
2023-02-02T18:03:25.447Z,87.79
2023-02-02T18:05:52.633Z,87.75
2023-02-02T18:08:19.976Z,87.94
2023-02-02T18:10:46.997Z,88.48
2023-02-02T18:13:16.614Z,88.61
2023-02-02T18:15:44.245Z,89.03
2023-02-02T18:18:14.516Z,88.84
2023-02-02T18:20:58.953Z,89.09
2023-02-02T18:23:27.883Z,89.37
2023-02-02T18:25:55.145Z,89.89
2023-02-02T18:28:22.408Z,89.92
2023-02-02T18:30:52.161Z,90.22
2023-02-02T18:33:20.189Z,90.54
2023-02-02T18:35:48.587Z,90.36
2023-02-02T18:38:16.387Z,90.40
2023-02-02T18:40:43.515Z,91.01
2023-02-02T18:43:10.576Z,91.13
2023-02-02T18:45:37.661Z,91.19
2023-02-02T18:48:04.881Z,91.22
2023-02-02T18:50:31.912Z,91.49
2023-02-02T18:52:58.990Z,91.98
2023-02-02T18:55:27.148Z,92.01
2023-02-02T18:57:54.604Z,91.75
2023-02-02T19:00:22.319Z,91.96
2023-02-02T19:02:49.576Z,91.74
2023-02-02T19:05:35.429Z,91.94
2023-02-02T19:08:04.118Z,92.37
2023-02-02T19:10:31.694Z,92.24
2023-02-02T19:13:19.805Z,92.09
2023-02-02T19:15:49.809Z,92.35
2023-02-02T19:18:23.483Z,92.44
2023-02-02T19:20:51.672Z,92.77
2023-02-02T19:23:25.823Z,92.78
2023-02-02T19:25:56.758Z,92.62
2023-02-02T19:28:31.236Z,92.35
2023-02-02T19:31:02.178Z,92.40
2023-02-02T19:33:51.473Z,92.39
2023-02-02T19:36:25.648Z,92.24
2023-02-02T19:39:01.656Z,92.16
2023-02-02T19:41:31.535Z,92.20
2023-02-02T19:44:16.621Z,92.19
2023-02-02T19:46:47.685Z,92.36
2023-02-02T19:49:25.065Z,92.28
2023-02-02T19:51:56.671Z,91.97
2023-02-02T19:54:37.364Z,92.31
2023-02-02T19:57:13.530Z,92.22
2023-02-02T19:59:43.740Z,92.04
2023-02-02T20:02:31.112Z,91.28
2023-02-02T20:05:34.997Z,91.43
2023-02-02T20:08:27.417Z,91.59
2023-02-02T20:10:56.343Z,91.64
2023-02-02T20:13:44.472Z,91.26
2023-02-02T20:16:19.956Z,91.39
2023-02-02T20:18:53.801Z,91.55
2023-02-02T20:21:44.026Z,91.29
2023-02-02T20:24:38.712Z,91.24
2023-02-02T20:27:23.284Z,90.91
2023-02-02T20:29:53.881Z,90.82
2023-02-02T20:32:37.617Z,91.19
2023-02-02T20:35:30.572Z,90.93
2023-02-02T20:37:57.836Z,90.76
2023-02-02T20:40:28.965Z,90.19
2023-02-02T20:42:58.314Z,90.19
2023-02-02T20:45:26.416Z,90.12
2023-02-02T20:47:55.246Z,90.04
2023-02-02T20:50:23.479Z,90.24
2023-02-02T20:52:51.935Z,90.46
2023-02-02T20:55:19.296Z,90.50
2023-02-02T20:57:46.664Z,90.52
2023-02-02T21:00:17.963Z,90.61
2023-02-02T21:02:45.066Z,90.67
2023-02-02T21:05:12.231Z,90.89
2023-02-02T21:07:41.039Z,91.23
2023-02-02T21:10:08.960Z,91.69
2023-02-02T21:12:35.976Z,91.44
2023-02-02T21:15:04.134Z,91.70
2023-02-02T21:17:31.258Z,91.75
2023-02-02T21:19:58.269Z,91.89
2023-02-02T21:22:25.324Z,91.66
2023-02-02T21:24:52.320Z,91.96
2023-02-02T21:27:20.043Z,92.51
2023-02-02T21:29:47.063Z,92.48
2023-02-02T21:32:14.421Z,92.41
2023-02-02T21:34:41.562Z,92.53
2023-02-02T21:37:16.283Z,92.33
2023-02-02T21:39:53.677Z,92.96
2023-02-02T21:42:22.980Z,92.73
2023-02-02T21:45:25.237Z,92.97
2023-02-02T21:47:56.314Z,93.07
2023-02-02T21:50:32.082Z,92.94
2023-02-02T21:53:17.129Z,93.13
2023-02-02T21:55:46.641Z,93.65
2023-02-02T21:58:34.134Z,93.54
2023-02-02T22:01:33.969Z,93.44
2023-02-02T22:04:01.063Z,93.42
2023-02-02T22:06:32.194Z,93.94
2023-02-02T22:09:45.019Z,94.11
2023-02-02T22:12:24.157Z,94.12
2023-02-02T22:15:00.750Z,94.28
2023-02-02T22:17:41.376Z,94.44
2023-02-02T22:20:31.075Z,94.70
2023-02-02T22:22:58.064Z,95.03
2023-02-02T22:25:30.325Z,95.41
2023-02-02T22:28:01.917Z,95.24
2023-02-02T22:30:38.704Z,95.83
2023-02-02T22:33:08.553Z,95.88
2023-02-02T22:35:36.441Z,96.16
2023-02-02T22:38:04.420Z,96.59
2023-02-02T22:40:31.830Z,96.72
2023-02-02T22:43:05.880Z,97.10
2023-02-02T22:45:33.178Z,97.33
2023-02-02T22:48:00.536Z,97.66
2023-02-02T22:50:30.943Z,98.13
2023-02-02T22:52:58.694Z,98.33
2023-02-02T22:55:25.893Z,98.37
2023-02-02T22:57:53.512Z,97.96
2023-02-02T23:00:27.969Z,98.14
2023-02-02T23:02:56.153Z,98.54
2023-02-02T23:05:25.424Z,98.81
2023-02-02T23:07:53.893Z,98.71
2023-02-02T23:10:25.617Z,98.96
2023-02-02T23:12:55.152Z,99.01
2023-02-02T23:15:22.865Z,99.21
2023-02-02T23:17:50.023Z,99.54
2023-02-02T23:20:18.106Z,99.80
2023-02-02T23:22:45.120Z,99.90
2023-02-02T23:25:13.988Z,100.00
2023-02-02T23:27:41.159Z,100.00
2023-02-02T23:30:10.147Z,100.00
2023-02-02T23:32:37.198Z,100.00
2023-02-02T23:35:05.976Z,100.00
2023-02-02T23:37:33.531Z,100.00
2023-02-02T23:40:00.484Z,100.00
2023-02-02T23:42:27.521Z,100.00
2023-02-02T23:44:54.488Z,100.00
2023-02-02T23:47:21.571Z,100.00
2023-02-02T23:49:48.698Z,100.00
2023-02-02T23:52:15.847Z,100.00
2023-02-02T23:54:43.567Z,100.00
2023-02-02T23:57:10.760Z,100.00
2023-02-02T23:59:37.821Z,100.00
